Time;durP1;ratioP1;P1;durP2;ratioP2;P2;SDS_P1;SDS_P2;PMS_P1;PMS_P2;Temp;Humidity;BMP_temperature;BMP_pressure;BME280_temperature;BME280_humidity;BME280_pressure;Samples;Min_cycle;Max_cycle;Signal;HPM_P1;HPM_P2
2023/05/13 00:00:39;;;;;;;16.77;16.17;;;13.10;1.00;;;;;;4884471;29;20490;-84
2023/05/13 00:03:08;;;;;;;16.50;15.90;;;13.00;1.00;;;;;;4889138;29;20489;-84
2023/05/13 00:05:37;;;;;;;16.37;15.87;;;13.10;1.00;;;;;;4884039;29;20466;-86
2023/05/13 00:08:06;;;;;;;17.10;16.40;;;13.00;1.00;;;;;;4889093;29;20907;-86
2023/05/13 00:10:35;;;;;;;17.23;16.63;;;12.90;83.20;;;;;;4889361;29;20449;-86
2023/05/13 00:13:03;;;;;;;16.60;16.10;;;12.90;99.90;;;;;;4888120;29;20460;-84
2023/05/13 00:15:32;;;;;;;16.63;16.13;;;12.90;99.90;;;;;;4889111;29;20588;-85
2023/05/13 00:18:00;;;;;;;16.63;16.13;;;12.90;99.90;;;;;;4891234;29;20465;-83
2023/05/13 00:20:30;;;;;;;17.80;17.00;;;12.90;99.90;;;;;;4890829;29;20492;-86
2023/05/13 00:22:58;;;;;;;17.37;16.60;;;12.90;99.90;;;;;;4889293;29;22740;-85
2023/05/13 00:25:26;;;;;;;17.23;16.60;;;12.90;99.90;;;;;;4890314;29;21133;-86
2023/05/13 00:27:54;;;;;;;17.27;16.57;;;12.90;99.90;;;;;;4887957;29;21077;-86
2023/05/13 00:30:23;;;;;;;16.80;16.27;;;12.90;1.00;;;;;;4888052;29;20910;-86
2023/05/13 00:32:51;;;;;;;16.73;16.13;;;12.90;1.00;;;;;;4888064;29;20996;-86
2023/05/13 00:35:20;;;;;;;17.53;16.80;;;13.00;1.00;;;;;;4887913;29;20561;-85
2023/05/13 00:37:49;;;;;;;17.20;16.60;;;13.00;1.00;;;;;;4887707;29;20481;-86
2023/05/13 00:40:21;;;;;;;16.63;16.13;;;13.00;1.00;;;;;;4890463;29;21008;-85
2023/05/13 00:42:50;;;;;;;16.87;16.27;;;13.00;1.00;;;;;;4884406;29;20476;-86
2023/05/13 00:45:18;;;;;;;16.87;16.17;;;13.00;93.80;;;;;;4889667;29;20485;-84
2023/05/13 00:47:48;;;;;;;17.00;16.40;;;13.00;99.90;;;;;;4888371;29;20536;-84
2023/05/13 00:50:16;;;;;;;17.10;16.30;;;12.90;99.90;;;;;;4888167;29;20976;-86
2023/05/13 00:52:45;;;;;;;17.07;16.47;;;13.00;1.00;;;;;;4888701;29;20861;-83
2023/05/13 00:55:14;;;;;;;16.87;16.27;;;13.00;99.90;;;;;;4888652;29;20596;-84
2023/05/13 00:57:43;;;;;;;16.37;15.80;;;13.00;99.90;;;;;;4886969;29;20548;-84
2023/05/13 01:00:12;;;;;;;17.17;16.37;;;13.10;99.90;;;;;;4888062;29;21098;-84
2023/05/13 01:02:46;;;;;;;16.57;16.07;;;13.00;99.90;;;;;;4890430;29;20463;-85
2023/05/13 01:05:22;;;;;;;16.90;16.30;;;13.00;99.90;;;;;;4889592;29;20527;-85
2023/05/13 01:08:04;;;;;;;14.93;14.47;;;13.00;99.90;;;;;;4885674;29;20461;-85
2023/05/13 01:10:42;;;;;;;15.17;14.67;;;13.00;1.00;;;;;;4890097;29;20465;-85
2023/05/13 01:13:13;;;;;;;15.57;14.87;;;13.00;1.00;;;;;;4889291;29;20469;-85
2023/05/13 01:15:47;;;;;;;15.97;15.37;;;13.00;1.00;;;;;;4887740;29;20470;-84
2023/05/13 01:18:20;;;;;;;15.53;15.03;;;13.00;1.00;;;;;;4882393;29;20465;-85
2023/05/13 01:20:48;;;;;;;15.00;14.50;;;13.00;1.00;;;;;;4885734;29;20502;-85
2023/05/13 01:23:18;;;;;;;15.70;15.20;;;13.00;92.40;;;;;;4886815;29;20466;-85
2023/05/13 01:25:46;;;;;;;15.80;15.20;;;13.10;32.70;;;;;;4884900;29;20472;-85
2023/05/13 01:28:14;;;;;;;16.40;15.80;;;13.10;10.40;;;;;;4885247;29;20539;-84
2023/05/13 01:30:43;;;;;;;17.07;16.27;;;13.10;99.90;;;;;;4883243;29;20563;-84
2023/05/13 01:33:11;;;;;;;15.40;14.90;;;13.10;99.90;;;;;;4883880;29;20486;-84
2023/05/13 01:35:40;;;;;;;15.83;15.13;;;13.10;87.70;;;;;;4884800;29;20493;-85
2023/05/13 01:38:09;;;;;;;15.70;15.20;;;13.10;35.30;;;;;;4883109;29;21019;-86
2023/05/13 01:40:40;;;;;;;15.87;15.27;;;13.10;79.70;;;;;;4883273;29;20481;-86
2023/05/13 01:43:08;;;;;;;15.23;14.83;;;13.10;99.90;;;;;;4884773;29;20469;-85
2023/05/13 01:45:36;;;;;;;15.40;14.80;;;13.10;99.90;;;;;;4886277;29;20489;-86
2023/05/13 01:48:05;;;;;;;15.97;15.43;;;13.10;1.00;;;;;;4885270;29;20921;-86
2023/05/13 01:50:33;;;;;;;15.50;15.10;;;13.00;99.90;;;;;;4883712;29;20465;-86
2023/05/13 01:53:02;;;;;;;15.93;15.27;;;13.10;99.90;;;;;;4887713;29;20510;-86
2023/05/13 01:55:30;;;;;;;15.50;15.00;;;13.10;79.30;;;;;;4887922;29;20633;-86
2023/05/13 01:57:59;;;;;;;15.97;15.47;;;13.10;1.00;;;;;;4887947;29;20513;-87
2023/05/13 02:00:28;;;;;;;16.13;15.53;;;13.10;1.00;;;;;;4881370;29;20753;-85
2023/05/13 02:02:56;;;;;;;15.83;15.20;;;13.10;1.00;;;;;;4886635;29;20894;-86
2023/05/13 02:05:24;;;;;;;15.63;15.13;;;13.00;1.00;;;;;;4888616;29;21171;-85
2023/05/13 02:07:52;;;;;;;16.43;15.83;;;13.00;1.00;;;;;;4888283;29;20475;-86
2023/05/13 02:10:20;;;;;;;16.73;16.03;;;12.90;99.90;;;;;;4889276;29;20512;-86
2023/05/13 02:12:49;;;;;;;16.20;15.60;;;12.90;99.90;;;;;;4887607;29;20471;-86
2023/05/13 02:15:19;;;;;;;16.00;15.50;;;12.90;1.00;;;;;;4884789;29;20495;-85
2023/05/13 02:17:47;;;;;;;16.10;15.50;;;12.90;1.00;;;;;;4888866;29;20468;-85
2023/05/13 02:20:15;;;;;;;15.70;15.20;;;12.90;1.00;;;;;;4888171;29;20464;-85
2023/05/13 02:22:44;;;;;;;16.17;15.67;;;12.90;1.00;;;;;;4889992;29;20488;-85
2023/05/13 02:25:12;;;;;;;17.77;16.53;;;12.80;1.00;;;;;;4890921;29;20480;-85
2023/05/13 02:27:40;;;;;;;16.10;15.60;;;12.80;1.00;;;;;;4892145;29;20461;-84
2023/05/13 02:30:09;;;;;;;16.87;16.10;;;12.80;1.00;;;;;;4890769;29;21364;-85
2023/05/13 02:32:41;;;;;;;16.43;15.93;;;12.80;99.90;;;;;;4889704;29;20460;-85
2023/05/13 02:35:10;;;;;;;17.00;16.37;;;12.80;99.90;;;;;;4890692;29;20517;-85
2023/05/13 02:37:38;;;;;;;16.77;16.00;;;12.80;99.90;;;;;;4887505;29;20562;-86
2023/05/13 02:40:08;;;;;;;16.30;15.80;;;12.70;1.00;;;;;;4888540;29;20471;-85
2023/05/13 02:42:36;;;;;;;16.60;15.70;;;12.70;99.90;;;;;;4886804;29;20511;-86
2023/05/13 02:45:05;;;;;;;15.83;15.33;;;12.70;99.90;;;;;;4889266;29;20503;-84
2023/05/13 02:47:33;;;;;;;16.60;16.03;;;12.70;99.90;;;;;;4888653;29;20519;-85
2023/05/13 02:50:05;;;;;;;15.90;15.30;;;12.60;99.90;;;;;;4885888;29;20463;-86
2023/05/13 02:52:34;;;;;;;17.10;16.40;;;12.60;1.00;;;;;;4887501;29;20457;-85
2023/05/13 02:55:03;;;;;;;16.23;15.63;;;12.60;99.90;;;;;;4880527;29;20571;-87
2023/05/13 02:57:31;;;;;;;16.43;15.73;;;12.70;99.90;;;;;;4883345;29;20473;-86
2023/05/13 02:59:59;;;;;;;15.50;15.00;;;12.70;99.90;;;;;;4886180;29;20979;-86
2023/05/13 03:02:27;;;;;;;16.60;15.90;;;12.70;99.90;;;;;;4883604;29;20488;-87
2023/05/13 03:04:56;;;;;;;16.10;15.50;;;12.70;99.90;;;;;;4889305;29;20495;-86
2023/05/13 03:07:25;;;;;;;15.97;15.47;;;12.70;99.90;;;;;;4886614;29;20468;-87
2023/05/13 03:09:54;;;;;;;15.83;15.33;;;12.60;99.90;;;;;;4888188;29;20467;-87
2023/05/13 03:12:22;;;;;;;15.30;14.80;;;12.70;1.00;;;;;;4890027;29;20454;-88
2023/05/13 03:14:50;;;;;;;15.47;14.77;;;12.70;1.00;;;;;;4882776;29;20525;-88
2023/05/13 03:17:18;;;;;;;14.80;14.40;;;12.70;99.90;;;;;;4885081;29;20457;-87
2023/05/13 03:19:47;;;;;;;15.20;14.77;;;12.70;99.90;;;;;;4886942;29;20468;-85
2023/05/13 03:22:15;;;;;;;15.20;14.70;;;12.60;1.00;;;;;;4883532;29;20492;-86
2023/05/13 03:24:44;;;;;;;15.50;15.00;;;12.60;1.00;;;;;;4885018;29;20489;-86
2023/05/13 03:27:13;;;;;;;15.87;15.20;;;12.60;1.00;;;;;;4885432;29;20469;-86
2023/05/13 03:29:41;;;;;;;15.60;14.87;;;12.60;99.90;;;;;;4884821;29;20469;-85
2023/05/13 03:32:09;;;;;;;15.80;15.20;;;12.60;99.90;;;;;;4887434;29;20461;-85
2023/05/13 03:34:37;;;;;;;15.40;14.90;;;12.60;99.90;;;;;;4886515;29;20496;-85
2023/05/13 03:37:06;;;;;;;16.20;15.57;;;12.60;99.90;;;;;;4886504;29;20698;-86
2023/05/13 03:39:35;;;;;;;15.33;14.83;;;12.60;99.90;;;;;;4884363;29;21339;-85
2023/05/13 03:42:05;;;;;;;15.60;15.10;;;12.60;99.90;;;;;;4885795;29;20481;-86
2023/05/13 03:44:33;;;;;;;15.37;14.87;;;12.60;99.90;;;;;;4886552;29;20477;-86
2023/05/13 03:47:01;;;;;;;15.37;14.87;;;12.60;99.90;;;;;;4885451;29;20481;-86
2023/05/13 03:49:29;;;;;;;15.70;15.20;;;12.60;39.80;;;;;;4886073;29;20458;-84
2023/05/13 03:51:58;;;;;;;15.93;15.43;;;12.50;1.00;;;;;;4885944;29;20966;-86
2023/05/13 03:54:26;;;;;;;16.10;15.50;;;12.50;7.30;;;;;;4887829;29;20673;-85
2023/05/13 03:56:54;;;;;;;16.20;15.67;;;12.50;21.50;;;;;;4885647;29;20544;-86
2023/05/13 03:59:24;;;;;;;15.37;14.87;;;12.50;37.60;;;;;;4886385;29;20463;-86
2023/05/13 04:01:52;;;;;;;15.00;14.60;;;12.50;56.80;;;;;;4882170;29;20477;-86
2023/05/13 04:04:20;;;;;;;15.93;15.43;;;12.50;1.00;;;;;;4886655;29;20479;-87
2023/05/13 04:06:48;;;;;;;15.43;14.83;;;12.60;1.00;;;;;;4887076;29;21014;-86
2023/05/13 04:09:16;;;;;;;16.20;15.60;;;12.60;1.00;;;;;;4890431;29;20458;-85
2023/05/13 04:11:45;;;;;;;15.40;14.90;;;12.50;1.00;;;;;;4883254;29;20491;-84
2023/05/13 04:14:13;;;;;;;15.27;14.80;;;12.60;1.00;;;;;;4885078;29;20519;-86
2023/05/13 04:16:42;;;;;;;15.90;15.40;;;12.60;1.00;;;;;;4885265;29;20468;-84
2023/05/13 04:19:11;;;;;;;16.20;15.40;;;12.60;1.00;;;;;;4887571;29;20527;-86
2023/05/13 04:21:39;;;;;;;15.10;14.60;;;12.60;1.00;;;;;;4885145;29;20602;-84
2023/05/13 04:24:07;;;;;;;15.63;15.03;;;12.50;1.00;;;;;;4886045;29;20477;-85
2023/05/13 04:26:37;;;;;;;15.10;14.70;;;12.50;1.00;;;;;;4888957;29;20548;-84
2023/05/13 04:29:05;;;;;;;15.63;15.10;;;12.60;1.00;;;;;;4890674;29;20889;-85
2023/05/13 04:31:33;;;;;;;15.47;14.97;;;12.60;1.00;;;;;;4888769;29;20463;-84
2023/05/13 04:34:03;;;;;;;15.27;14.77;;;12.60;1.00;;;;;;4890210;29;20484;-86
2023/05/13 04:36:32;;;;;;;15.47;14.97;;;12.50;1.00;;;;;;4882728;29;20469;-85
2023/05/13 04:39:00;;;;;;;15.20;14.80;;;12.50;1.00;;;;;;4885822;29;20470;-86
2023/05/13 04:41:28;;;;;;;15.20;14.80;;;12.50;1.00;;;;;;4887220;29;20466;-85
2023/05/13 04:43:56;;;;;;;15.37;14.83;;;12.60;1.00;;;;;;4887760;29;20536;-85
2023/05/13 04:46:24;;;;;;;15.90;15.40;;;12.50;1.00;;;;;;4880314;29;20465;-85
2023/05/13 04:48:53;;;;;;;15.60;15.10;;;12.50;99.90;;;;;;4887625;29;20460;-86
2023/05/13 04:51:23;;;;;;;15.97;15.30;;;12.50;99.90;;;;;;4884418;29;20460;-84
2023/05/13 04:53:52;;;;;;;15.50;15.00;;;12.50;99.90;;;;;;4885954;29;20469;-86
2023/05/13 04:56:20;;;;;;;16.23;15.73;;;12.50;99.90;;;;;;4888017;29;20987;-85
2023/05/13 04:58:49;;;;;;;15.73;15.23;;;12.60;99.90;;;;;;4882046;29;20560;-84
2023/05/13 05:01:17;;;;;;;16.80;15.87;;;12.60;99.90;;;;;;4880330;29;20474;-84
2023/05/13 05:03:45;;;;;;;15.67;15.00;;;12.50;99.90;;;;;;4885765;29;20494;-86
2023/05/13 05:06:14;;;;;;;15.53;14.97;;;12.50;99.90;;;;;;4887218;29;20465;-85
2023/05/13 05:08:43;;;;;;;15.13;14.67;;;12.50;99.90;;;;;;4885273;29;20876;-85
2023/05/13 05:11:12;;;;;;;15.47;14.97;;;12.50;99.90;;;;;;4889523;29;20484;-86
2023/05/13 05:13:40;;;;;;;15.10;14.67;;;12.50;99.90;;;;;;4883669;29;20481;-85
2023/05/13 05:16:08;;;;;;;15.00;14.50;;;12.40;99.90;;;;;;4888402;29;20456;-85
2023/05/13 05:18:36;;;;;;;16.33;15.73;;;12.50;99.90;;;;;;4885950;29;20543;-84
2023/05/13 05:21:05;;;;;;;15.67;15.17;;;12.50;99.90;;;;;;4885723;29;21355;-85
2023/05/13 05:23:33;;;;;;;16.47;15.60;;;12.50;99.90;;;;;;4881741;29;20587;-83
2023/05/13 05:26:03;;;;;;;15.70;15.10;;;12.50;99.90;;;;;;4888754;29;20474;-85
2023/05/13 05:28:39;;;;;;;15.83;15.20;;;12.50;99.90;;;;;;4890099;29;20993;-84
2023/05/13 05:31:08;;;;;;;15.53;15.03;;;12.50;99.90;;;;;;4890423;29;20470;-85
2023/05/13 05:33:37;;;;;;;16.00;15.40;;;12.50;99.90;;;;;;4889328;29;20479;-84
2023/05/13 05:36:06;;;;;;;15.53;14.83;;;12.50;99.90;;;;;;4886515;29;20478;-84
2023/05/13 05:38:34;;;;;;;15.03;14.53;;;12.60;99.90;;;;;;4887587;29;20992;-84
2023/05/13 05:41:04;;;;;;;15.00;14.60;;;12.50;99.90;;;;;;4891145;29;20461;-85
2023/05/13 05:43:32;;;;;;;15.50;14.93;;;12.60;99.90;;;;;;4889137;29;20495;-86
2023/05/13 05:46:00;;;;;;;15.57;15.07;;;12.50;99.90;;;;;;4889310;29;20469;-86
2023/05/13 05:48:29;;;;;;;15.53;14.93;;;12.60;99.90;;;;;;4887329;29;20534;-83
2023/05/13 05:51:00;;;;;;;15.33;14.93;;;12.60;99.90;;;;;;4889513;29;20465;-85
2023/05/13 05:53:28;;;;;;;16.00;15.40;;;12.60;99.90;;;;;;4888862;29;20532;-85
2023/05/13 05:55:57;;;;;;;15.67;15.07;;;12.70;99.90;;;;;;4884587;29;20476;-84
2023/05/13 05:58:26;;;;;;;15.10;14.70;;;12.70;99.90;;;;;;4889091;29;20964;-84
2023/05/13 06:00:55;;;;;;;15.80;15.30;;;12.70;99.90;;;;;;4884893;29;20489;-83
2023/05/13 06:03:24;;;;;;;16.07;15.57;;;12.70;99.90;;;;;;4887142;29;20492;-85
2023/05/13 06:05:52;;;;;;;15.80;15.30;;;12.70;99.90;;;;;;4890401;29;20562;-86
2023/05/13 06:08:21;;;;;;;16.07;15.57;;;12.80;99.90;;;;;;4885150;29;20460;-85
2023/05/13 06:10:49;;;;;;;16.50;15.67;;;12.70;62.30;;;;;;4887012;29;21135;-86
2023/05/13 06:13:17;;;;;;;16.17;15.67;;;12.80;99.90;;;;;;4885807;29;20468;-86
2023/05/13 06:15:47;;;;;;;15.90;15.40;;;12.80;91.00;;;;;;4890831;29;20464;-85
2023/05/13 06:18:15;;;;;;;16.63;15.83;;;12.80;99.90;;;;;;4888392;29;20455;-85
2023/05/13 06:20:43;;;;;;;16.10;15.50;;;12.80;99.90;;;;;;4891161;29;20456;-81
2023/05/13 06:23:13;;;;;;;17.10;16.10;;;12.80;99.90;;;;;;4885707;29;20495;-81
2023/05/13 06:25:41;;;;;;;16.80;16.20;;;12.90;37.10;;;;;;4890313;29;20491;-81
2023/05/13 06:28:11;;;;;;;16.53;15.83;;;12.90;1.00;;;;;;4886913;29;20528;-81
2023/05/13 06:30:39;;;;;;;16.57;15.97;;;12.90;1.00;;;;;;4891238;29;20819;-85
2023/05/13 06:33:11;;;;;;;17.77;16.47;;;13.00;1.00;;;;;;4887189;29;20985;-84
2023/05/13 06:35:39;;;;;;;16.53;15.93;;;13.00;1.00;;;;;;4888372;29;20492;-85
2023/05/13 06:38:08;;;;;;;16.10;15.60;;;13.00;99.90;;;;;;4887112;29;20460;-86
2023/05/13 06:40:37;;;;;;;16.70;16.10;;;13.00;99.90;;;;;;4886481;29;20464;-88
2023/05/13 06:43:05;;;;;;;16.53;16.03;;;13.00;99.90;;;;;;4879236;29;20977;-86
2023/05/13 06:45:33;;;;;;;16.40;15.90;;;13.10;99.90;;;;;;4885398;29;20486;-88
2023/05/13 06:48:02;;;;;;;16.27;15.77;;;13.10;1.00;;;;;;4887187;29;20478;-88
2023/05/13 06:50:31;;;;;;;16.77;16.27;;;13.10;1.00;;;;;;4887493;29;21047;-86
2023/05/13 06:53:00;;;;;;;16.83;16.23;;;13.10;1.00;;;;;;4888108;29;20450;-85
2023/05/13 06:55:28;;;;;;;16.77;16.20;;;13.10;1.00;;;;;;4887065;29;20502;-85
2023/05/13 06:57:56;;;;;;;17.40;16.47;;;13.10;99.90;;;;;;4889569;29;20563;-86
2023/05/13 07:00:25;;;;;;;16.90;16.30;;;13.10;99.90;;;;;;4884041;29;20468;-84
2023/05/13 07:02:53;;;;;;;17.23;16.53;;;13.20;99.90;;;;;;4880384;29;20564;-84
2023/05/13 07:05:21;;;;;;;17.17;16.47;;;13.20;99.90;;;;;;4882172;29;20554;-85
2023/05/13 07:07:52;;;;;;;17.33;16.73;;;13.30;99.90;;;;;;4886307;29;20465;-86
2023/05/13 07:10:20;;;;;;;17.70;17.00;;;13.30;99.90;;;;;;4887231;29;20544;-88
2023/05/13 07:12:49;;;;;;;16.73;16.13;;;13.30;99.90;;;;;;4889294;29;20466;-86
2023/05/13 07:15:18;;;;;;;17.40;16.80;;;13.40;99.90;;;;;;4883446;29;20886;-86
2023/05/13 07:17:46;;;;;;;18.00;17.30;;;13.40;99.90;;;;;;4891268;29;20474;-86
2023/05/13 07:20:15;;;;;;;18.30;17.53;;;13.40;99.90;;;;;;4892747;29;20473;-86
2023/05/13 07:22:43;;;;;;;18.90;18.13;;;13.50;99.90;;;;;;4891003;29;20940;-85
2023/05/13 07:25:12;;;;;;;18.13;17.13;;;13.50;99.90;;;;;;4891259;29;20500;-86
2023/05/13 07:27:41;;;;;;;17.33;16.60;;;13.50;99.90;;;;;;4894352;29;20514;-87
2023/05/13 07:30:10;;;;;;;17.00;16.40;;;13.50;99.90;;;;;;4894191;29;21030;-86
2023/05/13 07:32:38;;;;;;;17.50;16.90;;;13.50;99.90;;;;;;4895484;29;20450;-87
2023/05/13 07:35:08;;;;;;;18.10;17.30;;;13.60;99.90;;;;;;4894530;29;20533;-87
2023/05/13 07:37:36;;;;;;;18.23;17.33;;;13.60;99.90;;;;;;4897360;29;20462;-87
2023/05/13 07:40:06;;;;;;;17.50;16.80;;;13.70;99.90;;;;;;4894875;29;20520;-89
2023/05/13 07:42:36;;;;;;;18.07;17.37;;;13.70;99.90;;;;;;4892733;29;20491;-88
2023/05/13 07:45:06;;;;;;;18.00;17.30;;;13.80;99.90;;;;;;4892719;29;20494;-89
2023/05/13 07:47:34;;;;;;;17.87;17.07;;;13.90;99.90;;;;;;4890672;29;20458;-88
2023/05/13 07:50:04;;;;;;;17.67;16.97;;;13.90;99.90;;;;;;4891743;29;20474;-88
2023/05/13 07:52:33;;;;;;;18.10;17.00;;;14.00;99.90;;;;;;4892185;29;20469;-86
2023/05/13 07:55:01;;;;;;;17.63;16.83;;;13.90;36.10;;;;;;4891135;29;20494;-86
2023/05/13 07:57:29;;;;;;;18.60;17.47;;;14.00;99.90;;;;;;4888598;29;20496;-87
2023/05/13 07:59:58;;;;;;;17.97;17.27;;;14.10;90.00;;;;;;4890584;29;20489;-85
2023/05/13 08:02:27;;;;;;;18.30;17.50;;;14.20;97.20;;;;;;4890425;29;20541;-84
2023/05/13 08:04:55;;;;;;;17.63;16.93;;;14.20;80.70;;;;;;4891277;29;20482;-84
2023/05/13 08:07:23;;;;;;;18.67;17.77;;;14.30;15.70;;;;;;4893099;29;20860;-84
2023/05/13 08:09:52;;;;;;;19.47;18.57;;;14.20;1.00;;;;;;4891388;29;20478;-84
2023/05/13 08:12:20;;;;;;;18.13;17.33;;;14.20;1.00;;;;;;4882322;29;20553;-85
2023/05/13 08:14:48;;;;;;;17.57;16.80;;;14.30;20.70;;;;;;4886350;29;20489;-87
2023/05/13 08:17:18;;;;;;;18.80;18.10;;;14.30;9.30;;;;;;4891501;29;20457;-87
2023/05/13 08:19:46;;;;;;;19.07;18.27;;;14.30;3.00;;;;;;4890156;29;20505;-87
2023/05/13 08:22:15;;;;;;;19.00;18.20;;;14.40;1.00;;;;;;4885721;29;20999;-86
2023/05/13 08:24:43;;;;;;;18.57;17.70;;;14.40;1.00;;;;;;4886674;29;20553;-84
2023/05/13 08:27:11;;;;;;;19.00;18.20;;;14.40;1.00;;;;;;4888195;29;20466;-88
2023/05/13 08:29:39;;;;;;;18.00;17.40;;;14.40;1.00;;;;;;4886305;29;20496;-86
2023/05/13 08:32:08;;;;;;;18.63;17.77;;;14.40;1.00;;;;;;4890730;29;20469;-84
2023/05/13 08:34:38;;;;;;;18.20;17.50;;;14.40;1.00;;;;;;4893190;29;20514;-85
2023/05/13 08:37:07;;;;;;;18.07;17.27;;;14.40;1.00;;;;;;4892424;29;20451;-80
2023/05/13 08:39:35;;;;;;;18.90;18.00;;;14.30;1.00;;;;;;4889516;29;20514;-86
2023/05/13 08:42:04;;;;;;;19.30;18.40;;;14.40;24.20;;;;;;4886659;29;20471;-85
2023/05/13 08:44:35;;;;;;;21.53;19.63;;;14.40;1.00;;;;;;4908771;29;20486;-86
2023/05/13 08:47:26;;;;;;;18.97;18.10;;;14.50;1.00;;;;;;4899068;29;20471;-86
2023/05/13 08:49:56;;;;;;;18.00;17.40;;;14.40;1.00;;;;;;4889473;29;20473;-85
2023/05/13 08:52:25;;;;;;;19.30;18.20;;;14.40;1.00;;;;;;4891755;29;20451;-84
2023/05/13 08:54:54;;;;;;;18.40;17.70;;;14.40;1.00;;;;;;4883383;29;20486;-87
2023/05/13 08:57:22;;;;;;;18.33;17.53;;;14.30;1.00;;;;;;4891957;29;20462;-85
2023/05/13 08:59:50;;;;;;;18.13;17.53;;;14.30;1.00;;;;;;4891366;29;20477;-85
2023/05/13 09:02:22;;;;;;;18.70;17.70;;;14.30;1.00;;;;;;4894535;29;20450;-85
2023/05/13 09:04:53;;;;;;;17.27;16.57;;;14.30;1.00;;;;;;4891396;29;20490;-84
2023/05/13 09:07:23;;;;;;;17.90;17.20;;;14.30;1.00;;;;;;4888823;29;20465;-88
2023/05/13 09:09:51;;;;;;;16.73;16.20;;;14.30;1.00;;;;;;4891341;29;20463;-87
2023/05/13 09:12:42;;;;;;;17.97;17.10;;;14.40;1.00;;;;;;4892789;29;20681;-86
2023/05/13 09:15:12;;;;;;;17.97;17.20;;;14.40;1.00;;;;;;4892284;29;20512;-87
2023/05/13 09:17:42;;;;;;;17.33;16.63;;;14.40;1.00;;;;;;4890372;29;20461;-85
2023/05/13 09:20:12;;;;;;;17.90;17.20;;;14.40;1.00;;;;;;4891607;29;20533;-85
2023/05/13 09:22:45;;;;;;;17.73;17.13;;;14.40;1.00;;;;;;4891574;29;20465;-87
2023/05/13 09:25:15;;;;;;;17.60;17.00;;;14.40;1.00;;;;;;4892735;29;20487;-83
2023/05/13 09:27:45;;;;;;;17.20;16.60;;;14.30;1.00;;;;;;4892549;29;20461;-84
2023/05/13 09:30:14;;;;;;;17.33;16.73;;;14.40;1.00;;;;;;4886984;29;20454;-86
2023/05/13 09:32:43;;;;;;;17.60;17.00;;;14.40;1.00;;;;;;4887413;29;20470;-83
2023/05/13 09:35:15;;;;;;;17.93;17.27;;;14.40;1.00;;;;;;4890098;29;20493;-85
2023/05/13 09:37:49;;;;;;;17.87;17.17;;;14.40;1.00;;;;;;4891362;29;20466;-82
2023/05/13 09:40:18;;;;;;;18.37;17.30;;;14.40;1.00;;;;;;4892392;29;21075;-83
2023/05/13 09:42:47;;;;;;;17.40;16.67;;;14.40;1.00;;;;;;4890739;29;20463;-83
2023/05/13 09:45:17;;;;;;;18.63;17.70;;;14.40;1.00;;;;;;4892323;29;20478;-83
2023/05/13 09:47:51;;;;;;;17.63;16.93;;;14.40;1.00;;;;;;4890323;29;20459;-84
2023/05/13 09:50:19;;;;;;;17.60;17.00;;;14.50;1.00;;;;;;4892799;29;20465;-82
2023/05/13 09:52:50;;;;;;;17.93;17.00;;;14.50;1.00;;;;;;4891225;29;20459;-83
2023/05/13 09:55:21;;;;;;;17.73;17.03;;;14.50;1.00;;;;;;4892486;29;20489;-83
2023/05/13 09:57:49;;;;;;;17.60;16.70;;;14.50;1.00;;;;;;4890550;29;20910;-83
2023/05/13 10:00:21;;;;;;;17.67;17.07;;;14.50;1.00;;;;;;4891810;29;20485;-83
2023/05/13 10:03:01;;;;;;;17.73;17.07;;;14.50;1.00;;;;;;4891959;29;20521;-83
2023/05/13 10:05:30;;;;;;;17.13;16.57;;;14.50;1.00;;;;;;4889738;29;20491;-82
2023/05/13 10:08:00;;;;;;;17.40;16.80;;;14.50;1.00;;;;;;4891188;29;20463;-82
2023/05/13 10:10:31;;;;;;;16.60;16.10;;;14.60;1.00;;;;;;4893314;29;20466;-83
2023/05/13 10:13:02;;;;;;;17.40;16.80;;;14.70;1.00;;;;;;4894027;29;20463;-85
2023/05/13 10:15:31;;;;;;;17.93;17.23;;;14.80;1.00;;;;;;4890616;29;21109;-83
2023/05/13 10:17:59;;;;;;;17.00;16.50;;;14.80;1.00;;;;;;4908982;29;20467;-82
2023/05/13 10:20:28;;;;;;;16.80;16.30;;;14.80;1.00;;;;;;4895748;29;20470;-82
2023/05/13 10:22:59;;;;;;;17.43;16.70;;;14.70;1.00;;;;;;4894300;29;20473;-83
2023/05/13 10:25:27;;;;;;;17.00;16.50;;;14.80;1.00;;;;;;4889934;29;20498;-83
2023/05/13 10:27:57;;;;;;;17.30;16.70;;;14.70;1.00;;;;;;4893748;29;20998;-84
2023/05/13 10:30:26;;;;;;;17.10;16.50;;;14.60;1.00;;;;;;4895888;29;20857;-82
2023/05/13 10:32:54;;;;;;;16.57;16.07;;;14.70;1.00;;;;;;4895284;29;20466;-84
2023/05/13 10:35:27;;;;;;;17.03;16.53;;;14.70;1.00;;;;;;4893869;29;20485;-83
2023/05/13 10:38:03;;;;;;;16.97;16.33;;;14.60;1.00;;;;;;4894795;29;20711;-82
2023/05/13 10:41:04;;;;;;;17.83;16.50;;;14.70;1.00;;;;;;4893501;29;20474;-83
2023/05/13 10:43:35;;;;;;;17.10;16.40;;;14.80;1.00;;;;;;4891933;29;20461;-84
2023/05/13 10:46:05;;;;;;;16.30;15.80;;;15.00;1.00;;;;;;4893298;29;20571;-82
2023/05/13 10:48:41;;;;;;;16.80;16.30;;;15.00;1.00;;;;;;4894100;29;20458;-83
2023/05/13 10:51:14;;;;;;;16.30;15.70;;;15.00;1.00;;;;;;4892951;29;20462;-84
2023/05/13 10:53:50;;;;;;;16.23;15.53;;;15.00;1.00;;;;;;4893495;29;20530;-83
2023/05/13 10:56:20;;;;;;;16.47;15.87;;;15.00;1.00;;;;;;4890620;29;20469;-85
2023/05/13 10:58:58;;;;;;;16.17;15.73;;;15.10;1.00;;;;;;4893495;29;20832;-83
2023/05/13 11:01:29;;;;;;;16.17;15.67;;;15.00;1.00;;;;;;4887971;29;21082;-83
2023/05/13 11:04:00;;;;;;;15.70;15.20;;;15.00;1.00;;;;;;4892409;29;20494;-83
2023/05/13 11:06:33;;;;;;;15.50;15.00;;;15.00;1.00;;;;;;4893155;29;21013;-85
2023/05/13 11:09:05;;;;;;;15.63;15.03;;;14.90;1.00;;;;;;4894855;29;20452;-83
2023/05/13 11:11:35;;;;;;;16.40;15.80;;;14.90;1.00;;;;;;4893394;29;20570;-83
2023/05/13 11:14:08;;;;;;;15.77;15.30;;;14.90;1.00;;;;;;4891650;29;21095;-83
2023/05/13 11:16:37;;;;;;;16.00;15.43;;;14.90;1.00;;;;;;4893328;29;20471;-86
2023/05/13 11:19:18;;;;;;;16.07;15.50;;;15.00;1.00;;;;;;4893794;29;21004;-83
2023/05/13 11:21:50;;;;;;;16.37;15.87;;;15.00;1.00;;;;;;4894109;29;20561;-82
2023/05/13 11:24:21;;;;;;;17.20;16.60;;;14.90;1.00;;;;;;4893399;29;20518;-83
2023/05/13 11:26:52;;;;;;;16.60;16.10;;;14.90;1.00;;;;;;4893439;29;20503;-82
2023/05/13 11:29:31;;;;;;;17.07;16.57;;;14.90;1.00;;;;;;4889811;29;21071;-83
2023/05/13 11:32:00;;;;;;;17.40;16.80;;;14.90;1.00;;;;;;4894462;29;20506;-83
2023/05/13 11:34:29;;;;;;;18.43;16.77;;;14.90;1.00;;;;;;4893941;29;20475;-82
2023/05/13 11:37:07;;;;;;;17.50;16.70;;;14.90;1.00;;;;;;4894664;29;20467;-83
2023/05/13 11:39:39;;;;;;;17.70;17.07;;;14.90;1.00;;;;;;4886416;29;20474;-81
2023/05/13 11:42:08;;;;;;;18.40;17.53;;;14.90;1.00;;;;;;4892565;29;20490;-86
2023/05/13 11:44:44;;;;;;;17.77;17.17;;;14.90;1.00;;;;;;4889289;29;21137;-84
2023/05/13 11:47:12;;;;;;;17.40;16.87;;;14.90;1.00;;;;;;4889501;29;20497;-83
2023/05/13 11:49:41;;;;;;;17.60;17.00;;;14.90;1.00;;;;;;4891586;29;20513;-82
2023/05/13 11:52:11;;;;;;;18.63;17.30;;;14.80;1.00;;;;;;4891291;29;20458;-82
2023/05/13 11:54:46;;;;;;;16.43;15.93;;;14.80;1.00;;;;;;4886688;29;20514;-80
2023/05/13 11:57:21;;;;;;;17.77;16.97;;;14.80;1.00;;;;;;4891242;29;20470;-82
2023/05/13 11:59:51;;;;;;;17.97;17.27;;;14.80;1.00;;;;;;4887260;29;20533;-81
2023/05/13 12:02:21;;;;;;;17.50;16.93;;;14.80;1.00;;;;;;4890609;29;20470;-83
2023/05/13 12:04:51;;;;;;;17.43;16.83;;;14.80;1.00;;;;;;4888781;29;21069;-80
2023/05/13 12:07:21;;;;;;;18.00;17.40;;;14.80;1.00;;;;;;4891572;29;20521;-81
2023/05/13 12:09:51;;;;;;;17.73;16.97;;;14.80;1.00;;;;;;4888538;29;20466;-81
2023/05/13 12:12:20;;;;;;;17.97;17.40;;;14.80;1.00;;;;;;4890413;29;20467;-79
2023/05/13 12:14:50;;;;;;;17.80;17.20;;;14.80;1.00;;;;;;4890026;29;20489;-80
2023/05/13 12:17:18;;;;;;;18.10;17.50;;;14.80;1.00;;;;;;4884833;29;20554;-80
2023/05/13 12:20:06;;;;;;;18.07;17.40;;;14.80;1.00;;;;;;4887764;29;20471;-83
2023/05/13 12:22:35;;;;;;;17.63;17.03;;;14.80;1.00;;;;;;4886684;29;20499;-80
2023/05/13 12:25:39;;;;;;;17.17;16.57;;;14.80;1.00;;;;;;4891294;29;20480;-81
2023/05/13 12:28:09;;;;;;;18.00;17.20;;;14.90;1.00;;;;;;4888185;29;20482;-80
2023/05/13 12:30:39;;;;;;;17.40;16.83;;;15.00;1.00;;;;;;4891720;29;20549;-81
2023/05/13 12:33:13;;;;;;;18.07;17.40;;;15.10;1.00;;;;;;4890548;29;20475;-82
2023/05/13 12:35:42;;;;;;;17.70;17.10;;;15.00;1.00;;;;;;4889767;29;20486;-82
2023/05/13 12:38:15;;;;;;;18.47;17.77;;;15.10;1.00;;;;;;4889359;29;20469;-80
2023/05/13 12:40:45;;;;;;;18.40;17.60;;;15.10;1.00;;;;;;4891161;29;20462;-79
2023/05/13 12:43:14;;;;;;;18.40;17.50;;;15.00;1.00;;;;;;4888171;29;20614;-83
2023/05/13 12:45:43;;;;;;;17.80;17.10;;;15.10;1.00;;;;;;4886968;29;20472;-79